sensor_id;sensor_type;location;lat;lon;timestamp;pressure;altitude;pressure_sealevel;temperature;humidity
52319;BME280;38258;51.148;14.068;2022-11-15T00:01:16;98335.28;;;5.52;100.00
52319;BME280;38258;51.148;14.068;2022-11-15T00:04:02;98339.59;;;5.55;100.00
52319;BME280;38258;51.148;14.068;2022-11-15T00:06:49;98313.75;;;5.43;100.00
52319;BME280;38258;51.148;14.068;2022-11-15T00:09:35;98337.91;;;5.48;100.00
52319;BME280;38258;51.148;14.068;2022-11-15T00:12:20;98334.41;;;5.52;100.00
52319;BME280;38258;51.148;14.068;2022-11-15T00:15:07;98312.91;;;5.41;100.00
52319;BME280;38258;51.148;14.068;2022-11-15T00:17:53;98333.59;;;5.47;100.00
52319;BME280;38258;51.148;14.068;2022-11-15T00:20:39;98333.63;;;5.42;100.00
52319;BME280;38258;51.148;14.068;2022-11-15T00:23:26;98337.00;;;5.54;100.00
52319;BME280;38258;51.148;14.068;2022-11-15T00:26:13;98333.66;;;5.41;100.00
52319;BME280;38258;51.148;14.068;2022-11-15T00:28:59;98323.28;;;5.39;100.00
52319;BME280;38258;51.148;14.068;2022-11-15T00:31:45;98331.13;;;5.33;100.00
52319;BME280;38258;51.148;14.068;2022-11-15T00:34:31;98333.72;;;5.30;100.00
52319;BME280;38258;51.148;14.068;2022-11-15T00:37:17;98328.59;;;5.25;100.00
52319;BME280;38258;51.148;14.068;2022-11-15T00:40:05;98324.31;;;5.19;100.00
52319;BME280;38258;51.148;14.068;2022-11-15T00:42:50;98326.88;;;5.21;100.00
52319;BME280;38258;51.148;14.068;2022-11-15T00:45:36;98319.19;;;5.10;100.00
52319;BME280;38258;51.148;14.068;2022-11-15T00:48:21;98318.28;;;5.17;100.00
52319;BME280;38258;51.148;14.068;2022-11-15T00:51:07;98326.09;;;5.13;100.00
52319;BME280;38258;51.148;14.068;2022-11-15T00:53:52;98327.00;;;5.07;100.00
52319;BME280;38258;51.148;14.068;2022-11-15T00:56:39;98315.78;;;5.05;100.00
52319;BME280;38258;51.148;14.068;2022-11-15T00:59:25;98313.16;;;5.09;100.00
52319;BME280;38258;51.148;14.068;2022-11-15T01:02:10;98307.97;;;5.08;100.00
52319;BME280;38258;51.148;14.068;2022-11-15T01:04:56;98305.41;;;5.09;100.00
52319;BME280;38258;51.148;14.068;2022-11-15T01:07:41;98301.00;;;5.16;100.00
52319;BME280;38258;51.148;14.068;2022-11-15T01:10:27;98307.06;;;5.18;100.00
52319;BME280;38258;51.148;14.068;2022-11-15T01:13:13;98302.78;;;5.06;100.00
52319;BME280;38258;51.148;14.068;2022-11-15T01:15:59;98298.47;;;5.12;100.00
52319;BME280;38258;51.148;14.068;2022-11-15T01:18:45;98292.44;;;5.09;100.00
52319;BME280;38258;51.148;14.068;2022-11-15T01:21:30;98301.13;;;5.04;100.00
52319;BME280;38258;51.148;14.068;2022-11-15T01:24:16;98286.44;;;5.00;100.00
52319;BME280;38258;51.148;14.068;2022-11-15T01:27:01;98288.09;;;5.08;100.00
52319;BME280;38258;51.148;14.068;2022-11-15T01:29:48;98285.56;;;5.01;100.00
52319;BME280;38258;51.148;14.068;2022-11-15T01:32:33;98278.66;;;5.03;100.00
52319;BME280;38258;51.148;14.068;2022-11-15T01:35:19;98271.81;;;4.92;100.00
52319;BME280;38258;51.148;14.068;2022-11-15T01:38:04;98276.06;;;5.00;100.00
52319;BME280;38258;51.148;14.068;2022-11-15T01:40:50;98269.16;;;5.00;100.00
52319;BME280;38258;51.148;14.068;2022-11-15T01:43:36;98276.88;;;5.06;100.00
52319;BME280;38258;51.148;14.068;2022-11-15T01:46:27;98267.44;;;4.99;100.00
52319;BME280;38258;51.148;14.068;2022-11-15T01:49:16;98261.41;;;4.95;100.00
52319;BME280;38258;51.148;14.068;2022-11-15T01:52:05;98261.41;;;4.95;100.00
52319;BME280;38258;51.148;14.068;2022-11-15T01:54:56;98259.69;;;4.94;100.00
52319;BME280;38258;51.148;14.068;2022-11-15T01:57:46;98257.09;;;4.93;100.00
52319;BME280;38258;51.148;14.068;2022-11-15T02:00:32;98258.81;;;4.94;100.00
52319;BME280;38258;51.148;14.068;2022-11-15T02:03:20;98238.97;;;4.94;100.00
52319;BME280;38258;51.148;14.068;2022-11-15T02:06:08;98254.56;;;4.88;100.00
52319;BME280;38258;51.148;14.068;2022-11-15T02:08:54;98233.00;;;4.83;100.00
52319;BME280;38258;51.148;14.068;2022-11-15T02:11:41;98243.31;;;4.88;100.00
52319;BME280;38258;51.148;14.068;2022-11-15T02:14:28;98242.47;;;4.90;100.00
52319;BME280;38258;51.148;14.068;2022-11-15T02:17:31;98239.81;;;4.98;100.00
52319;BME280;38258;51.148;14.068;2022-11-15T02:20:44;98245.06;;;4.86;100.00
52319;BME280;38258;51.148;14.068;2022-11-15T02:24:07;98235.59;;;4.83;100.00
52319;BME280;38258;51.148;14.068;2022-11-15T02:30:33;98227.72;;;4.97;100.00
52319;BME280;38258;51.148;14.068;2022-11-15T02:33:30;98233.84;;;4.87;100.00
52319;BME280;38258;51.148;14.068;2022-11-15T02:36:24;98236.47;;;4.82;100.00
52319;BME280;38258;51.148;14.068;2022-11-15T02:39:20;98243.47;;;4.66;100.00
52319;BME280;38258;51.148;14.068;2022-11-15T02:42:11;98230.50;;;4.74;100.00
52319;BME280;38258;51.148;14.068;2022-11-15T02:45:17;98225.25;;;4.80;100.00
52319;BME280;38258;51.148;14.068;2022-11-15T02:48:07;98225.25;;;4.80;100.00
52319;BME280;38258;51.148;14.068;2022-11-15T02:50:54;98215.78;;;4.74;100.00
52319;BME280;38258;51.148;14.068;2022-11-15T02:53:40;98218.28;;;4.87;100.00
52319;BME280;38258;51.148;14.068;2022-11-15T02:56:25;98221.78;;;4.81;100.00
52319;BME280;38258;51.148;14.068;2022-11-15T02:59:25;98216.53;;;4.89;100.00
52319;BME280;38258;51.148;14.068;2022-11-15T03:02:30;98203.56;;;4.87;100.00
52319;BME280;38258;51.148;14.068;2022-11-15T03:05:25;98205.34;;;4.84;100.00
52319;BME280;38258;51.148;14.068;2022-11-15T03:08:22;98207.09;;;4.81;100.00
52319;BME280;38258;51.148;14.068;2022-11-15T03:11:13;98202.84;;;4.74;100.00
52319;BME280;38258;51.148;14.068;2022-11-15T03:14:07;98196.00;;;4.65;100.00
52319;BME280;38258;51.148;14.068;2022-11-15T03:16:59;98194.19;;;4.75;100.00
52319;BME280;38258;51.148;14.068;2022-11-15T03:19:50;98184.75;;;4.65;100.00
52319;BME280;38258;51.148;14.068;2022-11-15T03:22:40;98193.38;;;4.69;100.00
52319;BME280;38258;51.148;14.068;2022-11-15T03:25:28;98196.81;;;4.72;100.00
52319;BME280;38258;51.148;14.068;2022-11-15T03:28:18;98184.59;;;4.85;100.00
52319;BME280;38258;51.148;14.068;2022-11-15T03:31:05;98190.63;;;4.87;100.00
52319;BME280;38258;51.148;14.068;2022-11-15T03:34:07;98189.81;;;4.80;100.00
52319;BME280;38258;51.148;14.068;2022-11-15T03:36:56;98182.00;;;4.87;100.00
52319;BME280;38258;51.148;14.068;2022-11-15T03:39:43;98170.75;;;4.88;100.00
52319;BME280;38258;51.148;14.068;2022-11-15T03:42:32;98161.34;;;4.77;100.00
52319;BME280;38258;51.148;14.068;2022-11-15T03:45:24;98167.25;;;4.92;100.00
52319;BME280;38258;51.148;14.068;2022-11-15T03:48:14;98163.81;;;4.90;100.00
52319;BME280;38258;51.148;14.068;2022-11-15T03:51:03;98157.78;;;4.91;100.00
52319;BME280;38258;51.148;14.068;2022-11-15T03:53:50;98168.16;;;4.89;100.00
52319;BME280;38258;51.148;14.068;2022-11-15T03:56:36;98168.06;;;4.99;100.00
52319;BME280;38258;51.148;14.068;2022-11-15T03:59:22;98167.19;;;5.01;100.00
52319;BME280;38258;51.148;14.068;2022-11-15T04:02:08;98168.13;;;4.92;100.00
52319;BME280;38258;51.148;14.068;2022-11-15T04:04:53;98168.09;;;4.95;100.00
52319;BME280;38258;51.148;14.068;2022-11-15T04:07:39;98170.63;;;5.05;100.00
52319;BME280;38258;51.148;14.068;2022-11-15T04:10:24;98174.94;;;5.04;100.00
52319;BME280;38258;51.148;14.068;2022-11-15T04:13:11;98174.94;;;5.04;100.00
52319;BME280;38258;51.148;14.068;2022-11-15T04:15:56;98168.03;;;5.05;100.00
52319;BME280;38258;51.148;14.068;2022-11-15T04:18:42;98177.63;;;4.93;100.00
52319;BME280;38258;51.148;14.068;2022-11-15T04:21:27;98169.97;;;4.83;100.00
52319;BME280;38258;51.148;14.068;2022-11-15T04:24:31;98168.09;;;4.94;100.00
52319;BME280;38258;51.148;14.068;2022-11-15T04:27:16;98164.78;;;4.83;100.00
52319;BME280;38258;51.148;14.068;2022-11-15T04:30:04;98155.19;;;4.92;100.00
52319;BME280;38258;51.148;14.068;2022-11-15T04:32:50;98152.56;;;4.94;100.00
52319;BME280;38258;51.148;14.068;2022-11-15T04:35:35;98141.22;;;5.06;100.00
52319;BME280;38258;51.148;14.068;2022-11-15T04:38:20;98143.78;;;5.09;100.00
52319;BME280;38258;51.148;14.068;2022-11-15T04:41:04;98144.66;;;5.06;100.00
52319;BME280;38258;51.148;14.068;2022-11-15T04:43:50;98144.66;;;5.06;100.00
52319;BME280;38258;51.148;14.068;2022-11-15T04:46:37;98145.53;;;5.07;100.00
52319;BME280;38258;51.148;14.068;2022-11-15T04:49:22;98134.44;;;4.91;100.00
52319;BME280;38258;51.148;14.068;2022-11-15T04:52:08;98140.44;;;4.98;100.00
52319;BME280;38258;51.148;14.068;2022-11-15T04:54:53;98143.06;;;4.96;100.00
52319;BME280;38258;51.148;14.068;2022-11-15T04:57:38;98144.69;;;5.02;100.00
52319;BME280;38258;51.148;14.068;2022-11-15T05:00:24;98151.63;;;5.01;100.00
52319;BME280;38258;51.148;14.068;2022-11-15T05:03:11;98158.72;;;4.84;100.00
52319;BME280;38258;51.148;14.068;2022-11-15T05:06:14;98156.06;;;4.90;100.00
52319;BME280;38258;51.148;14.068;2022-11-15T05:08:59;98153.63;;;4.71;100.00
52319;BME280;38258;51.148;14.068;2022-11-15T05:11:45;98153.66;;;4.65;100.00
52319;BME280;38258;51.148;14.068;2022-11-15T05:14:30;98164.09;;;4.59;100.00
52319;BME280;38258;51.148;14.068;2022-11-15T05:17:16;98149.34;;;4.67;100.00
52319;BME280;38258;51.148;14.068;2022-11-15T05:20:03;98157.34;;;4.37;100.00
52319;BME280;38258;51.148;14.068;2022-11-15T05:22:48;98153.94;;;4.31;100.00
52319;BME280;38258;51.148;14.068;2022-11-15T05:25:35;98150.44;;;4.35;100.00
52319;BME280;38258;51.148;14.068;2022-11-15T05:28:21;98138.28;;;4.48;100.00
52319;BME280;38258;51.148;14.068;2022-11-15T05:31:08;98148.81;;;4.24;100.00
52319;BME280;38258;51.148;14.068;2022-11-15T05:33:55;98145.41;;;4.18;100.00
52319;BME280;38258;51.148;14.068;2022-11-15T05:36:43;98148.03;;;4.10;100.00
52319;BME280;38258;51.148;14.068;2022-11-15T05:39:30;98146.94;;;4.41;100.00
52319;BME280;38258;51.148;14.068;2022-11-15T05:42:15;98137.38;;;4.53;100.00
52319;BME280;38258;51.148;14.068;2022-11-15T05:45:02;98147.75;;;4.47;100.00
52319;BME280;38258;51.148;14.068;2022-11-15T05:47:50;98143.50;;;4.43;100.00
52319;BME280;38258;51.148;14.068;2022-11-15T05:50:38;98152.16;;;4.36;100.00
52319;BME280;38258;51.148;14.068;2022-11-15T05:53:27;98140.91;;;4.42;100.00
52319;BME280;38258;51.148;14.068;2022-11-15T05:56:13;98144.38;;;4.37;100.00
52319;BME280;38258;51.148;14.068;2022-11-15T05:58:59;98135.81;;;4.32;100.00
52319;BME280;38258;51.148;14.068;2022-11-15T06:01:45;98139.19;;;4.42;100.00
52319;BME280;38258;51.148;14.068;2022-11-15T06:04:30;98134.91;;;4.36;100.00
52319;BME280;38258;51.148;14.068;2022-11-15T06:07:16;98131.44;;;4.39;100.00
52319;BME280;38258;51.148;14.068;2022-11-15T06:10:03;98142.72;;;4.33;100.00
52319;BME280;38258;51.148;14.068;2022-11-15T06:12:56;98130.53;;;4.42;100.00
52319;BME280;38258;51.148;14.068;2022-11-15T06:15:42;98128.91;;;4.31;100.00
52319;BME280;38258;51.148;14.068;2022-11-15T06:18:27;98140.13;;;4.27;100.00
52319;BME280;38258;51.148;14.068;2022-11-15T06:21:13;98134.06;;;4.33;100.00
52319;BME280;38258;51.148;14.068;2022-11-15T06:23:58;98134.94;;;4.32;100.00
52319;BME280;38258;51.148;14.068;2022-11-15T06:26:45;98136.69;;;4.31;100.00
52319;BME280;38258;51.148;14.068;2022-11-15T06:29:31;98140.97;;;4.29;100.00
52319;BME280;38258;51.148;14.068;2022-11-15T06:32:16;98140.09;;;4.35;100.00
52319;BME280;38258;51.148;14.068;2022-11-15T06:35:01;98138.34;;;4.38;100.00
52319;BME280;38258;51.148;14.068;2022-11-15T06:37:47;98141.75;;;4.44;100.00
52319;BME280;38258;51.148;14.068;2022-11-15T06:40:33;98144.34;;;4.45;100.00
52319;BME280;38258;51.148;14.068;2022-11-15T06:43:21;98138.31;;;4.43;100.00
52319;BME280;38258;51.148;14.068;2022-11-15T06:46:06;98144.38;;;4.42;100.00
52319;BME280;38258;51.148;14.068;2022-11-15T06:48:52;98147.78;;;4.43;100.00
52319;BME280;38258;51.148;14.068;2022-11-15T06:51:38;98148.56;;;4.60;100.00
52319;BME280;38258;51.148;14.068;2022-11-15T06:54:23;98152.78;;;4.69;100.00
52319;BME280;38258;51.148;14.068;2022-11-15T06:57:09;98156.25;;;4.66;100.00
52319;BME280;38258;51.148;14.068;2022-11-15T06:59:56;98152.84;;;4.61;100.00
52319;BME280;38258;51.148;14.068;2022-11-15T07:02:42;98151.06;;;4.66;100.00
52319;BME280;38258;51.148;14.068;2022-11-15T07:05:28;98156.44;;;4.45;100.00
52319;BME280;38258;51.148;14.068;2022-11-15T07:08:13;98166.66;;;4.63;100.00
52319;BME280;38258;51.148;14.068;2022-11-15T07:10:59;98154.53;;;4.65;100.00
52319;BME280;38258;51.148;14.068;2022-11-15T07:13:45;98158.84;;;4.68;100.00
52319;BME280;38258;51.148;14.068;2022-11-15T07:16:32;98173.34;;;4.86;100.00
52319;BME280;38258;51.148;14.068;2022-11-15T07:19:17;98169.09;;;4.80;100.00
52319;BME280;38258;51.148;14.068;2022-11-15T07:22:03;98171.53;;;4.98;100.00
52319;BME280;38258;51.148;14.068;2022-11-15T07:24:49;98169.81;;;4.98;100.00
52319;BME280;38258;51.148;14.068;2022-11-15T07:27:35;98163.63;;;5.12;100.00
52319;BME280;38258;51.148;14.068;2022-11-15T07:30:20;98171.22;;;5.32;100.00
52319;BME280;38258;51.148;14.068;2022-11-15T07:33:07;98161.59;;;5.40;100.00
52319;BME280;38258;51.148;14.068;2022-11-15T07:35:53;98156.19;;;5.60;100.00
52319;BME280;38258;51.148;14.068;2022-11-15T07:38:38;98160.44;;;5.64;100.00
52319;BME280;38258;51.148;14.068;2022-11-15T07:41:23;98159.66;;;5.59;100.00
52319;BME280;38258;51.148;14.068;2022-11-15T07:44:09;98161.09;;;5.84;100.00
52319;BME280;38258;51.148;14.068;2022-11-15T07:46:54;98161.84;;;5.92;100.00
52319;BME280;38258;51.148;14.068;2022-11-15T07:49:41;98152.19;;;6.06;100.00
52319;BME280;38258;51.148;14.068;2022-11-15T07:52:26;98078.00;;;5.85;100.00
52319;BME280;38258;51.148;14.068;2022-11-15T07:55:11;98150.97;;;6.31;100.00
52319;BME280;38258;51.148;14.068;2022-11-15T07:58:00;98156.84;;;6.42;100.00
52319;BME280;38258;51.148;14.068;2022-11-15T08:00:45;98148.94;;;6.48;100.00
52319;BME280;38258;51.148;14.068;2022-11-15T08:03:31;98146.09;;;6.67;100.00
52319;BME280;38258;51.148;14.068;2022-11-15T08:06:18;98157.13;;;6.80;100.00
52319;BME280;38258;51.148;14.068;2022-11-15T08:09:03;98154.88;;;7.10;100.00
52319;BME280;38258;51.148;14.068;2022-11-15T08:11:48;98154.13;;;7.03;100.00
52319;BME280;38258;51.148;14.068;2022-11-15T08:14:34;98154.47;;;7.32;100.00
52319;BME280;38258;51.148;14.068;2022-11-15T08:17:19;98150.72;;;7.47;100.00
52319;BME280;38258;51.148;14.068;2022-11-15T08:20:06;98140.06;;;7.59;100.00
52319;BME280;38258;51.148;14.068;2022-11-15T08:22:53;98150.06;;;7.35;100.00
52319;BME280;38258;51.148;14.068;2022-11-15T08:25:38;98112.81;;;7.76;100.00
52319;BME280;38258;51.148;14.068;2022-11-15T08:28:23;98146.53;;;8.23;100.00
52319;BME280;38258;51.148;14.068;2022-11-15T08:31:13;98123.09;;;8.21;100.00
52319;BME280;38258;51.148;14.068;2022-11-15T08:34:00;98144.75;;;7.84;100.00
52319;BME280;38258;51.148;14.068;2022-11-15T08:36:46;98132.31;;;7.99;100.00
52319;BME280;38258;51.148;14.068;2022-11-15T08:39:32;98138.41;;;7.98;100.00
52319;BME280;38258;51.148;14.068;2022-11-15T08:42:17;98091.78;;;7.85;100.00
52319;BME280;38258;51.148;14.068;2022-11-15T08:45:03;98132.50;;;7.89;100.00
52319;BME280;38258;51.148;14.068;2022-11-15T08:47:48;98138.69;;;7.84;100.00
52319;BME280;38258;51.148;14.068;2022-11-15T08:50:34;98125.06;;;8.12;100.00
52319;BME280;38258;51.148;14.068;2022-11-15T08:53:19;98131.91;;;8.16;100.00
52319;BME280;38258;51.148;14.068;2022-11-15T08:56:08;98133.03;;;8.43;100.00
52319;BME280;38258;51.148;14.068;2022-11-15T08:58:53;98102.25;;;8.59;100.00
52319;BME280;38258;51.148;14.068;2022-11-15T09:01:38;98123.91;;;8.96;100.00
52319;BME280;38258;51.148;14.068;2022-11-15T09:04:23;98128.59;;;8.83;100.00
52319;BME280;38258;51.148;14.068;2022-11-15T09:07:09;98112.13;;;9.16;100.00
52319;BME280;38258;51.148;14.068;2022-11-15T09:09:54;98135.13;;;9.95;100.00
52319;BME280;38258;51.148;14.068;2022-11-15T09:12:41;98133.19;;;9.71;100.00
52319;BME280;38258;51.148;14.068;2022-11-15T09:15:26;98094.00;;;9.10;100.00
52319;BME280;38258;51.148;14.068;2022-11-15T09:18:12;98115.56;;;9.16;100.00
52319;BME280;38258;51.148;14.068;2022-11-15T09:20:57;98125.19;;;9.47;100.00
52319;BME280;38258;51.148;14.068;2022-11-15T09:23:42;98101.81;;;9.43;100.00
52319;BME280;38258;51.148;14.068;2022-11-15T09:26:27;98126.81;;;10.10;100.00
52319;BME280;38258;51.148;14.068;2022-11-15T09:29:14;98133.19;;;10.85;100.00
52319;BME280;38258;51.148;14.068;2022-11-15T09:31:59;98126.91;;;11.16;100.00
52319;BME280;38258;51.148;14.068;2022-11-15T09:34:44;98137.09;;;11.24;100.00
52319;BME280;38258;51.148;14.068;2022-11-15T09:37:31;98133.41;;;10.79;100.00
52319;BME280;38258;51.148;14.068;2022-11-15T09:40:17;98122.09;;;10.79;100.00
52319;BME280;38258;51.148;14.068;2022-11-15T09:43:25;98089.31;;;10.40;100.00
52319;BME280;38258;51.148;14.068;2022-11-15T09:46:20;98110.41;;;10.89;100.00
52319;BME280;38258;51.148;14.068;2022-11-15T09:49:08;98114.66;;;9.81;100.00
52319;BME280;38258;51.148;14.068;2022-11-15T09:51:58;98111.19;;;9.80;100.00
52319;BME280;38258;51.148;14.068;2022-11-15T09:54:28;98103.19;;;9.86;100.00
52319;BME280;38258;51.148;14.068;2022-11-15T09:57:03;98108.50;;;10.67;100.00
52319;BME280;38258;51.148;14.068;2022-11-15T09:59:46;98105.88;;;10.67;100.00
52319;BME280;38258;51.148;14.068;2022-11-15T10:02:28;98106.50;;;11.01;100.00
52319;BME280;38258;51.148;14.068;2022-11-15T10:04:59;98104.66;;;11.54;100.00
52319;BME280;38258;51.148;14.068;2022-11-15T10:07:33;98110.41;;;11.64;100.00
52319;BME280;38258;51.148;14.068;2022-11-15T10:10:09;98092.84;;;10.93;100.00
52319;BME280;38258;51.148;14.068;2022-11-15T10:12:40;98111.84;;;10.98;100.00
52319;BME280;38258;51.148;14.068;2022-11-15T10:15:13;98110.63;;;11.34;100.00
52319;BME280;38258;51.148;14.068;2022-11-15T10:17:59;98105.31;;;11.59;100.00
52319;BME280;38258;51.148;14.068;2022-11-15T10:20:29;98091.84;;;11.46;100.00
52319;BME280;38258;51.148;14.068;2022-11-15T10:23:00;98077.38;;;11.12;100.00
52319;BME280;38258;51.148;14.068;2022-11-15T10:25:29;98057.50;;;12.00;100.00
52319;BME280;38258;51.148;14.068;2022-11-15T10:27:58;98054.50;;;10.92;100.00
52319;BME280;38258;51.148;14.068;2022-11-15T10:30:36;98055.63;;;11.34;100.00
52319;BME280;38258;51.148;14.068;2022-11-15T10:33:19;98064.91;;;11.66;100.00
52319;BME280;38258;51.148;14.068;2022-11-15T10:35:47;98069.91;;;11.95;100.00
52319;BME280;38258;51.148;14.068;2022-11-15T10:38:13;98073.00;;;11.36;100.00
52319;BME280;38258;51.148;14.068;2022-11-15T10:40:41;98064.31;;;11.58;100.00
52319;BME280;38258;51.148;14.068;2022-11-15T10:43:15;98049.13;;;11.90;100.00
52319;BME280;38258;51.148;14.068;2022-11-15T10:45:42;98065.16;;;11.36;100.00
52319;BME280;38258;51.148;14.068;2022-11-15T10:48:22;98066.28;;;11.53;100.00
52319;BME280;38258;51.148;14.068;2022-11-15T10:50:50;98064.63;;;11.74;100.00
52319;BME280;38258;51.148;14.068;2022-11-15T10:53:22;98062.00;;;11.26;100.00
52319;BME280;38258;51.148;14.068;2022-11-15T10:55:52;98059.75;;;10.92;100.00
52319;BME280;38258;51.148;14.068;2022-11-15T10:58:22;98036.78;;;10.49;100.00
52319;BME280;38258;51.148;14.068;2022-11-15T11:00:54;98045.72;;;11.18;100.00
52319;BME280;38258;51.148;14.068;2022-11-15T11:03:28;98036.91;;;11.21;100.00
52319;BME280;38258;51.148;14.068;2022-11-15T11:06:08;98031.09;;;11.82;100.00
52319;BME280;38258;51.148;14.068;2022-11-15T11:08:35;98025.56;;;11.44;100.00
52319;BME280;38258;51.148;14.068;2022-11-15T11:11:03;98034.06;;;11.51;100.00
52319;BME280;38258;51.148;14.068;2022-11-15T11:13:31;98036.34;;;10.87;100.00
52319;BME280;38258;51.148;14.068;2022-11-15T11:16:08;98041.25;;;10.71;100.00
52319;BME280;38258;51.148;14.068;2022-11-15T11:18:38;98043.19;;;10.66;100.00
52319;BME280;38258;51.148;14.068;2022-11-15T11:21:12;98035.81;;;9.96;100.00
52319;BME280;38258;51.148;14.068;2022-11-15T11:23:45;98030.47;;;10.55;100.00
52319;BME280;38258;51.148;14.068;2022-11-15T11:26:35;98029.13;;;10.68;100.00
52319;BME280;38258;51.148;14.068;2022-11-15T11:29:16;98026.97;;;10.27;100.00
52319;BME280;38258;51.148;14.068;2022-11-15T11:31:52;98011.53;;;10.48;100.00
52319;BME280;38258;51.148;14.068;2022-11-15T11:34:33;98012.41;;;9.93;100.00
52319;BME280;38258;51.148;14.068;2022-11-15T11:37:09;98005.13;;;10.03;100.00
52319;BME280;38258;51.148;14.068;2022-11-15T11:39:45;97992.41;;;10.19;100.00
52319;BME280;38258;51.148;14.068;2022-11-15T11:42:18;98002.63;;;10.00;100.00
52319;BME280;38258;51.148;14.068;2022-11-15T11:44:57;97988.00;;;10.48;100.00
52319;BME280;38258;51.148;14.068;2022-11-15T11:47:31;97925.13;;;9.72;100.00
52319;BME280;38258;51.148;14.068;2022-11-15T11:50:02;97991.38;;;9.98;100.00
52319;BME280;38258;51.148;14.068;2022-11-15T11:52:43;97960.94;;;9.68;100.00
52319;BME280;38258;51.148;14.068;2022-11-15T11:55:15;97977.28;;;10.29;100.00
52319;BME280;38258;51.148;14.068;2022-11-15T11:57:48;97979.53;;;9.86;100.00
52319;BME280;38258;51.148;14.068;2022-11-15T12:00:19;97974.69;;;10.27;100.00
52319;BME280;38258;51.148;14.068;2022-11-15T12:03:01;97864.75;;;9.81;100.00
52319;BME280;38258;51.148;14.068;2022-11-15T12:05:35;97965.66;;;10.38;100.00
52319;BME280;38258;51.148;14.068;2022-11-15T12:08:15;97959.00;;;11.03;100.00
52319;BME280;38258;51.148;14.068;2022-11-15T12:10:50;97960.81;;;10.78;100.00
52319;BME280;38258;51.148;14.068;2022-11-15T12:13:24;97956.81;;;10.67;100.00
52319;BME280;38258;51.148;14.068;2022-11-15T12:15:59;97858.56;;;9.84;100.00
52319;BME280;38258;51.148;14.068;2022-11-15T12:18:30;97942.28;;;10.84;100.00
52319;BME280;38258;51.148;14.068;2022-11-15T12:21:00;97947.31;;;10.88;100.00
52319;BME280;38258;51.148;14.068;2022-11-15T12:23:32;97947.91;;;10.97;100.00
52319;BME280;38258;51.148;14.068;2022-11-15T12:26:02;97937.59;;;10.68;100.00
52319;BME280;38258;51.148;14.068;2022-11-15T12:28:38;97939.13;;;10.74;100.00
52319;BME280;38258;51.148;14.068;2022-11-15T12:31:12;97936.06;;;10.86;100.00
52319;BME280;38258;51.148;14.068;2022-11-15T12:33:43;97909.16;;;10.33;100.00
52319;BME280;38258;51.148;14.068;2022-11-15T12:36:30;97897.84;;;10.08;100.00
52319;BME280;38258;51.148;14.068;2022-11-15T12:39:00;97935.19;;;10.62;100.00
52319;BME280;38258;51.148;14.068;2022-11-15T12:41:29;97925.63;;;10.36;100.00
52319;BME280;38258;51.148;14.068;2022-11-15T12:43:56;97922.06;;;9.86;100.00
52319;BME280;38258;51.148;14.068;2022-11-15T12:49:44;97913.25;;;10.15;100.00
52319;BME280;38258;51.148;14.068;2022-11-15T12:52:13;97907.75;;;9.98;100.00
52319;BME280;38258;51.148;14.068;2022-11-15T12:54:57;97902.44;;;10.01;100.00
52319;BME280;38258;51.148;14.068;2022-11-15T12:57:33;97905.78;;;9.51;100.00
52319;BME280;38258;51.148;14.068;2022-11-15T13:00:04;97862.81;;;9.05;100.00
52319;BME280;38258;51.148;14.068;2022-11-15T13:02:33;97895.38;;;9.78;100.00
52319;BME280;38258;51.148;14.068;2022-11-15T13:05:56;97897.72;;;9.85;100.00
52319;BME280;38258;51.148;14.068;2022-11-15T13:08:37;97897.41;;;9.68;100.00
52319;BME280;38258;51.148;14.068;2022-11-15T13:17:33;97893.16;;;9.37;100.00
52319;BME280;38258;51.148;14.068;2022-11-15T13:20:19;97893.94;;;9.40;100.00
52319;BME280;38258;51.148;14.068;2022-11-15T13:22:47;97893.81;;;9.72;100.00
52319;BME280;38258;51.148;14.068;2022-11-15T13:25:30;97880.44;;;9.54;100.00
52319;BME280;38258;51.148;14.068;2022-11-15T13:28:03;97880.94;;;9.10;100.00
52319;BME280;38258;51.148;14.068;2022-11-15T13:30:36;97878.44;;;9.62;100.00
52319;BME280;38258;51.148;14.068;2022-11-15T13:33:08;97881.78;;;9.66;100.00
52319;BME280;38258;51.148;14.068;2022-11-15T13:35:38;97880.63;;;9.48;100.00
52319;BME280;38258;51.148;14.068;2022-11-15T13:38:06;97883.03;;;9.27;100.00
52319;BME280;38258;51.148;14.068;2022-11-15T13:40:43;97873.94;;;9.11;100.00
52319;BME280;38258;51.148;14.068;2022-11-15T13:43:23;97873.81;;;9.15;100.00
52319;BME280;38258;51.148;14.068;2022-11-15T13:46:04;97837.38;;;8.84;100.00
52319;BME280;38258;51.148;14.068;2022-11-15T13:48:31;97869.50;;;9.43;100.00
52319;BME280;38258;51.148;14.068;2022-11-15T13:50:59;97888.41;;;8.93;100.00
52319;BME280;38258;51.148;14.068;2022-11-15T13:53:26;97876.66;;;9.08;100.00
52319;BME280;38258;51.148;14.068;2022-11-15T13:55:55;97874.56;;;8.27;100.00
52319;BME280;38258;51.148;14.068;2022-11-15T13:58:23;97867.19;;;8.75;100.00
52319;BME280;38258;51.148;14.068;2022-11-15T14:00:59;97855.78;;;8.47;100.00
52319;BME280;38258;51.148;14.068;2022-11-15T14:03:28;97863.63;;;8.46;100.00
52319;BME280;38258;51.148;14.068;2022-11-15T14:06:05;97853.06;;;8.52;100.00
52319;BME280;38258;51.148;14.068;2022-11-15T14:08:33;97858.94;;;8.27;100.00
52319;BME280;38258;51.148;14.068;2022-11-15T14:11:13;97858.97;;;7.92;100.00
52319;BME280;38258;51.148;14.068;2022-11-15T14:14:02;97854.66;;;7.93;100.00
52319;BME280;38258;51.148;14.068;2022-11-15T14:16:33;97854.03;;;7.83;100.00
52319;BME280;38258;51.148;14.068;2022-11-15T14:19:00;97851.66;;;7.38;100.00
52319;BME280;38258;51.148;14.068;2022-11-15T14:21:27;97852.47;;;7.03;100.00
52319;BME280;38258;51.148;14.068;2022-11-15T14:24:13;97848.31;;;6.96;100.00